ADDS METAR Data INFO
IDs: Format: Raw Decoded Include TAF

Data at: 0636 UTC 15 Dec 2017

KIDA 150553Z AUTO 05004KT 1/2SM R20/2600V3500FT FZFG VV002 M07/M07 A3041 RMK AO2 SLP346 I6002 T10671072 11050 21067 58008
KIDA 150453Z AUTO 36006KT 3/4SM R20/3000V6000FT BR VV003 M07/M07 A3043 RMK AO2 SLP355 I1000 T10671072
KIDA 150425Z AUTO 05005KT 3/4SM R20/4000VP6000FT BR OVC002 M07/M07 A3042 RMK AO2 T10671072
KIDA 150417Z AUTO 06005KT 1SM R20/4500VP6000FT BR OVC002 M07/M07 A3042 RMK AO2 T10671072
KIDA 150408Z AUTO 04006KT 2SM R20/5500VP6000FT BR OVC002 M07/M07 A3042 RMK AO2 T10671072
KIDA 150401Z AUTO 06005KT 1/2SM R20/2200VP6000FT FZFG VV002 M07/M07 A3042 RMK AO2 T10671072
KIDA 150353Z AUTO 07005KT 1/4SM R20/2200V2800FT FZFG VV002 M06/M07 A3042 RMK AO2 SLP352 I1001 T10611067
KIDA 150338Z AUTO 08006KT 1/2SM R20/2400V3500FT FZFG VV002 M06/M07 A3042 RMK AO2 I1001 T10611067
KIDA 150325Z AUTO 08006KT 1/4SM R20/2200V2400FT FZFG VV002 M06/M07 A3043 RMK AO2 I1000 T10611067
KIDA 150253Z AUTO 07004KT 1/2SM R20/2400V4000FT FZFG VV003 M06/M07 A3044 RMK AO2 SLP356 I1000 I3001 T10561067 53002
KIDA 150251Z 06004KT 1/2SM R20/2400V4000FT FZFG VV002 M06/M07 A3044 RMK AO2 I1000
KIDA 150238Z 00000KT 1/4SM R20/2200V2600FT FZFG VV002 M06/M06 A3044 RMK AO2 T10561061
KIDA 150153Z 01005KT 1/2SM R20/3000V6000FT FZFG VV002 M06/M06 A3043 RMK AO2 SLP353 I1001 T10561061
KIDA 150100Z 00000KT 1SM R20/4500VP6000FT BR OVC002 M06/M06 A3043 RMK AO2 T10561061
KIDA 150053Z 00000KT 3/4SM R20/4000V6000FT BR OVC002 M06/M06 A3043 RMK AO2 SLP354 T10561061
KIDA 150038Z 04004KT 3/4SM R20/3500VP6000FT BR OVC002 M06/M07 A3043 RMK AO2 T10561067
KIDA 142353Z 00000KT 1 1/2SM BR OVC003 M06/M06 A3042 RMK AO2 SLP352 I6000 T10561061 11044 21056 56008
KIDA 142253Z 31005KT 1 1/2SM BR OVC003 M05/M06 A3044 RMK AO2 SLP354 T10501061
KIDA 142240Z 24003KT 1 1/2SM BR OVC003 M06/M06 A3044 RMK AO2 T10561061
KIDA 142153Z 36004KT 3SM BR OVC004 M04/M06 A3044 RMK AO2 SLP354 T10441061
KIDA 142053Z 00000KT 3SM BR OVC003 M05/M06 A3045 RMK AO2 SLP362 I3000 T10501061 58014
KIDA 141953Z 00000KT 2SM BR OVC003 M05/M06 A3047 RMK AO2 SLP369 T10501056
KIDA 141900Z 00000KT 2SM BR OVC003 M05/M06 A3048 RMK AO2 T10501056
KIDA 141853Z 00000KT 1SM R20/P6000FT BR OVC003 M06/M06 A3049 RMK AO2 SLP376 I1000 T10561061
KIDA 141800Z 00000KT 1SM R20/4500V6000FT BR OVC002 M05/M06 A3050 RMK AO2 T10501056
KIDA 141753Z 00000KT 1/2SM R20/4500VP6000FT FZFG OVC002 M05/M06 A3050 RMK AO2 SLP380 I1000 I6001 T10501056 11050 21061 50007
KIDA 141653Z 00000KT 1/2SM R20/5000VP6000FT FZFG OVC002 M06/M06 A3051 RMK AO2 SLP382 I1001 T10611061
KIDA 141553Z 28003KT 1/2SM R20/3000V4000FT FZFG OVC002 M06/M07 A3049 RMK AO2 SLP376 I1000 T10611067
KIDA 141453Z 24004KT 1/2SM R20/2800V4000FT FZFG VV003 M06/M07 A3048 RMK AO2 SLP368 I1000 I3000 T10611067 53008
KIDA 141353Z 24004KT 1/2SM R20/3000V3500FT FZFG VV002 M06/M06 A3047 RMK AO2 SLP365 I1000 T10611061
KIDA 141335Z AUTO 26006KT 1/2SM R20/3000V4000FT FZFG VV002 M06/M06 A3047 RMK AO2 T10611061
KIDA 141253Z AUTO 21006KT 1/4SM R20/2000V2400FT FZFG VV002 M06/M06 A3045 RMK AO2 SLP355 I1000 T10561061
KIDA 141246Z AUTO 19005KT 1/4SM R20/2200V2800FT FZFG VV002 M06/M06 A3045 RMK AO2 I1000 T10561061
KIDA 141153Z AUTO 15003KT 1/2SM R20/2800V4000FT FZFG VV003 M06/M06 A3045 RMK AO2 SLP353 I6002 T10561061 11056 21078 51009
KIDA 141053Z AUTO 20003KT 3/4SM R20/3500VP6000FT BR VV003 M06/M06 A3044 RMK AO2 SLP353 I1000 T10561061
KIDA 140953Z AUTO 17004KT 1/2SM R20/2800V4500FT FZFG VV002 M06/M06 A3043 RMK AO2 SLP348 T10561061
KIDA 140853Z AUTO 21005KT 1/4SM R20/1400V1800FT FZFG VV002 M07/M07 A3042 RMK AO2 SLP347 I1001 I3002 T10671067 53014
KIDA 140753Z AUTO 21008KT 1/4SM R20/1200V1400FT FZFG VV002 M07/M08 A3039 RMK AO2 SLP340 T10721078
KIDA 140653Z AUTO 21006KT M1/4SM R20/1000FT FZFG VV002 M07/M08 A3037 RMK AO2 SLP336 I1001 T10721078 410281089
KIDA 140624Z AUTO 23005KT 1/4SM R20/1200V1800FT FZFG VV002 M07/M08 A3038 RMK AO2 I1000 T10721078
KIDA 140614Z AUTO 22006KT 3/4SM R20/1800VP6000FT BR VV002 M08/M08 A3038 RMK AO2 T10781083
KIDA 140604Z AUTO 20005KT 2 1/2SM R20/6000VP6000FT BR BKN003 M07/M08 A3038 RMK AO2 T10721083
KIDA 140601Z AUTO 20003KT 4SM BR SCT003 M08/M08 A3038 RMK AO2 T10781083
KIDA 140553Z AUTO 18003KT 3SM BR CLR M07/M08 A3037 RMK AO2 SLP335 60000 I1001 I6001 T10721083 11028 21078 51012
KIDA 140536Z AUTO 00000KT 4SM BR CLR M08/M08 A3037 RMK AO2 I1001 T10781078
KIDA 140525Z AUTO 00000KT 2SM BR CLR M07/M08 A3037 RMK AO2 I1001 T10721078
KIDA 140518Z AUTO 18003KT 3SM BR CLR M07/M08 A3037 RMK AO2 I1001 T10671078
KIDA 140501Z AUTO 00000KT 2 1/2SM BR CLR M07/M07 A3037 RMK AO2 I1000 T10671072
KIDA 140453Z AUTO 22004KT 3SM BR CLR M07/M07 A3036 RMK AO2 SLP333 T10671072
KIDA 140353Z AUTO 21004KT 5SM BR OVC075 M05/M06 A3035 RMK AO2 SLP327 T10501061
KIDA 140253Z AUTO 21003KT 5SM BR OVC050 M04/M06 A3033 RMK AO2 SLP319 60000 T10441056 53021
KIDA 140153Z 22005KT 5SM BR OVC040 M04/M06 A3031 RMK AO2 SLP310 T10441056
KIDA 140053Z 17006KT 6SM BR SCT042 SCT049 BKN055 M04/M05 A3028 RMK AO2 SNB2355E38 SLP299 P0000 T10391050
KIDA 132353Z 15003KT 6SM HZ BKN055 OVC070 M03/M06 A3026 RMK AO2 SLP294 60000 T10281056 11028 21056 53006
KIDA 132253Z 00000KT 6SM BR OVC070 M03/M06 A3025 RMK AO2 SLP289 T10331056
KIDA 132153Z 21006KT 6SM BR OVC065 M03/M06 A3024 RMK AO2 SLP285 T10331056
KIDA 132053Z 28003KT 7SM OVC070 M03/M06 A3024 RMK AO2 SLP284 60000 T10331061 56035
KIDA 131953Z 05003KT 6SM BR FEW048 OVC070 M04/M06 A3026 RMK AO2 SNB05E33 SLP293 P0000 T10391061
KIDA 131853Z 12006KT 5SM BR BKN046 OVC065 M05/M07 A3031 RMK AO2 SLP310 T10501067